createdAt,value
2024-04-22T00:01:08.114Z,5.44
2024-04-22T00:03:36.010Z,5.40
2024-04-22T00:06:04.263Z,5.53
2024-04-22T00:08:32.377Z,5.62
2024-04-22T00:11:04.063Z,5.80
2024-04-22T00:13:33.744Z,5.86
2024-04-22T00:16:01.559Z,5.75
2024-04-22T00:18:31.943Z,5.74
2024-04-22T00:20:59.908Z,5.68
2024-04-22T00:23:27.748Z,5.79
2024-04-22T00:25:55.385Z,5.85
2024-04-22T00:28:23.291Z,5.81
2024-04-22T00:30:50.989Z,5.77
2024-04-22T00:33:18.826Z,5.88
2024-04-22T00:35:59.207Z,5.74
2024-04-22T00:38:27.174Z,5.74
2024-04-22T00:40:56.305Z,5.81
2024-04-22T00:43:23.972Z,5.85
2024-04-22T00:45:52.561Z,5.78
2024-04-22T00:48:22.312Z,6.15
2024-04-22T00:50:52.527Z,6.42
2024-04-22T00:53:23.783Z,6.60
2024-04-22T00:55:53.204Z,6.71
2024-04-22T00:58:22.700Z,6.88
2024-04-22T01:00:52.358Z,6.76
2024-04-22T01:03:20.720Z,6.71
2024-04-22T01:05:48.706Z,6.74
2024-04-22T01:08:16.960Z,6.79
2024-04-22T01:10:47.463Z,6.54
2024-04-22T01:13:15.355Z,6.48
2024-04-22T01:15:43.234Z,6.27
2024-04-22T01:18:17.423Z,6.43
2024-04-22T01:20:45.308Z,6.57
2024-04-22T01:23:15.713Z,6.32
2024-04-22T01:25:46.312Z,6.15
2024-04-22T01:28:14.179Z,6.28
2024-04-22T01:30:42.900Z,6.46
2024-04-22T01:33:10.755Z,6.66
2024-04-22T01:35:38.610Z,6.46
2024-04-22T01:38:06.297Z,6.49
2024-04-22T01:40:37.009Z,6.77
2024-04-22T01:43:05.167Z,7.00
2024-04-22T01:45:32.937Z,7.11
2024-04-22T01:48:00.756Z,7.13
2024-04-22T01:50:28.457Z,6.94
2024-04-22T01:52:56.152Z,6.95
2024-04-22T01:55:24.004Z,6.91
2024-04-22T01:57:54.643Z,6.89
2024-04-22T02:00:22.506Z,6.57
2024-04-22T02:02:50.731Z,6.57
2024-04-22T02:05:18.545Z,6.56
2024-04-22T02:07:46.315Z,6.45
2024-04-22T02:10:22.706Z,6.36
2024-04-22T02:12:54.588Z,6.38
2024-04-22T02:15:22.441Z,6.48
2024-04-22T02:17:52.344Z,6.38
2024-04-22T02:20:20.213Z,6.47
2024-04-22T02:22:47.981Z,6.54
2024-04-22T02:25:15.951Z,6.53
2024-04-22T02:27:43.842Z,6.54
2024-04-22T02:30:14.358Z,6.43
2024-04-22T02:32:42.244Z,6.27
2024-04-22T02:35:10.215Z,6.11
2024-04-22T02:37:38.022Z,6.07
2024-04-22T02:40:06.912Z,5.97
2024-04-22T02:42:34.918Z,5.91
2024-04-22T02:45:02.742Z,5.89
2024-04-22T02:47:33.369Z,6.07
2024-04-22T02:50:01.251Z,6.35
2024-04-22T02:52:28.945Z,6.48
2024-04-22T02:54:56.695Z,6.54
2024-04-22T02:57:24.472Z,6.38
2024-04-22T02:59:52.219Z,6.37
2024-04-22T03:02:19.940Z,6.46
2024-04-22T03:04:52.478Z,6.56
2024-04-22T03:07:20.168Z,6.67
2024-04-22T03:09:48.078Z,6.68
2024-04-22T03:12:15.958Z,6.67
2024-04-22T03:14:43.792Z,6.73
2024-04-22T03:17:11.628Z,6.74
2024-04-22T03:19:39.514Z,6.67
2024-04-22T03:22:09.874Z,6.73
2024-04-22T03:24:37.673Z,6.78
2024-04-22T03:27:05.381Z,6.92
2024-04-22T03:29:33.696Z,7.10
2024-04-22T03:32:01.553Z,7.26
2024-04-22T03:34:29.304Z,7.34
2024-04-22T03:36:57.098Z,7.42
2024-04-22T03:39:27.484Z,7.53
2024-04-22T03:41:55.423Z,7.57
2024-04-22T03:44:23.200Z,7.55
2024-04-22T03:46:50.942Z,7.49
2024-04-22T03:49:18.724Z,7.58
2024-04-22T03:51:46.620Z,7.68
2024-04-22T03:54:14.512Z,7.65
2024-04-22T03:56:44.874Z,7.78
2024-04-22T03:59:12.677Z,7.93
2024-04-22T04:01:40.652Z,8.05
2024-04-22T04:04:08.589Z,8.14
2024-04-22T04:06:36.571Z,8.20
2024-04-22T04:09:04.578Z,8.25
2024-04-22T04:11:32.518Z,8.36
2024-04-22T04:14:03.174Z,8.40
2024-04-22T04:16:31.439Z,8.43
2024-04-22T04:18:59.248Z,8.54
2024-04-22T04:21:27.184Z,8.57
2024-04-22T04:23:55.072Z,8.73
2024-04-22T04:26:22.909Z,8.86
2024-04-22T04:28:51.052Z,8.96
2024-04-22T04:31:21.572Z,9.04
2024-04-22T04:33:50.820Z,9.12
2024-04-22T04:36:18.572Z,9.15
2024-04-22T04:38:46.400Z,9.23
2024-04-22T04:41:14.164Z,9.31
2024-04-22T04:43:42.024Z,9.39
2024-04-22T04:46:09.918Z,9.46
2024-04-22T04:48:40.506Z,9.55
2024-04-22T04:51:08.127Z,9.60
2024-04-22T04:53:35.979Z,9.59
2024-04-22T04:56:03.738Z,9.62
2024-04-22T04:58:31.593Z,9.69
2024-04-22T05:01:00.155Z,9.73
2024-04-22T05:03:28.219Z,9.81
2024-04-22T05:06:02.799Z,9.83
2024-04-22T05:08:31.265Z,9.87
2024-04-22T05:11:04.442Z,9.91
2024-04-22T05:13:32.423Z,10.00
2024-04-22T05:16:00.478Z,10.03
2024-04-22T05:18:28.728Z,9.98
2024-04-22T05:20:56.613Z,10.09
2024-04-22T05:23:27.682Z,10.12
2024-04-22T05:25:55.799Z,10.18
2024-04-22T05:28:23.644Z,10.21
2024-04-22T05:30:51.505Z,10.23
2024-04-22T05:33:19.307Z,10.27
2024-04-22T05:35:47.844Z,10.32
2024-04-22T05:38:15.897Z,10.31
2024-04-22T05:40:46.407Z,10.30
2024-04-22T05:43:14.244Z,10.31
2024-04-22T05:45:42.002Z,10.31
2024-04-22T05:48:09.787Z,10.35
2024-04-22T05:50:38.485Z,10.36
2024-04-22T05:53:06.483Z,10.34
2024-04-22T05:55:34.515Z,10.37
2024-04-22T05:58:05.447Z,10.44
2024-04-22T06:00:33.468Z,10.49
2024-04-22T06:03:01.316Z,10.55
2024-04-22T06:05:29.150Z,10.63
2024-04-22T06:07:57.056Z,10.74
2024-04-22T06:10:25.085Z,10.82
2024-04-22T06:12:53.039Z,10.90
2024-04-22T06:15:26.236Z,11.01
2024-04-22T06:17:54.164Z,11.12
2024-04-22T06:20:22.035Z,11.23
2024-04-22T06:22:50.077Z,11.33
2024-04-22T06:25:19.281Z,11.42
2024-04-22T06:27:47.477Z,11.46
2024-04-22T06:30:15.400Z,11.51
2024-04-22T06:32:46.108Z,11.52
2024-04-22T06:35:14.150Z,11.55
2024-04-22T06:37:42.131Z,11.58
2024-04-22T06:40:10.558Z,11.62
2024-04-22T06:42:38.536Z,11.61
2024-04-22T06:45:06.848Z,11.61
2024-04-22T06:47:35.514Z,11.63
2024-04-22T06:50:06.654Z,11.67
2024-04-22T06:52:34.737Z,11.64
2024-04-22T06:55:02.641Z,11.60
2024-04-22T06:57:30.685Z,11.65
2024-04-22T06:59:58.645Z,11.60
2024-04-22T07:02:30.012Z,11.56
2024-04-22T07:04:58.490Z,11.64
2024-04-22T07:07:29.195Z,11.52
2024-04-22T07:09:57.079Z,11.57
2024-04-22T07:12:25.261Z,11.51
2024-04-22T07:14:53.230Z,11.50
2024-04-22T07:17:22.052Z,11.50
2024-04-22T07:19:49.998Z,11.55
2024-04-22T07:22:18.513Z,11.56
2024-04-22T07:24:57.531Z,11.57
2024-04-22T07:27:32.255Z,11.61
2024-04-22T07:30:01.199Z,11.62
2024-04-22T07:32:30.075Z,11.63
2024-04-22T07:34:58.641Z,11.62
2024-04-22T07:37:31.493Z,11.67
2024-04-22T07:40:12.366Z,11.72
2024-04-22T07:42:40.380Z,11.75
2024-04-22T07:45:08.814Z,11.75
2024-04-22T07:47:37.478Z,11.78
2024-04-22T07:50:06.446Z,11.84
2024-04-22T07:52:35.223Z,11.88
2024-04-22T07:55:06.777Z,11.84
2024-04-22T07:57:34.756Z,11.89
2024-04-22T08:00:04.718Z,11.96
2024-04-22T08:02:34.879Z,11.96
2024-04-22T08:05:03.750Z,11.98
2024-04-22T08:07:35.313Z,12.02
2024-04-22T08:10:06.438Z,12.06
2024-04-22T08:12:34.520Z,12.13
2024-04-22T08:15:02.415Z,12.02
2024-04-22T08:17:30.592Z,11.96
2024-04-22T08:19:59.209Z,12.00
2024-04-22T08:22:27.341Z,12.02
2024-04-22T08:24:55.259Z,11.92
2024-04-22T08:27:25.896Z,11.86
2024-04-22T08:29:54.445Z,11.90
2024-04-22T08:32:22.520Z,11.78
2024-04-22T08:34:50.520Z,11.68
2024-04-22T08:37:18.680Z,11.60
2024-04-22T08:39:46.672Z,11.40
2024-04-22T08:42:15.354Z,11.46
2024-04-22T08:44:46.478Z,11.45
2024-04-22T08:47:14.438Z,11.28
2024-04-22T08:49:42.373Z,11.18
2024-04-22T08:52:10.458Z,11.03
2024-04-22T08:54:38.383Z,10.89
2024-04-22T08:57:07.054Z,10.58
2024-04-22T08:59:40.327Z,10.33
2024-04-22T09:02:13.262Z,10.24
2024-04-22T09:04:41.612Z,10.16
2024-04-22T09:07:16.213Z,10.15
2024-04-22T09:10:01.051Z,10.16
2024-04-22T09:12:33.483Z,10.18
2024-04-22T09:15:03.369Z,10.20
2024-04-22T09:17:35.147Z,10.31
2024-04-22T09:20:03.567Z,10.31
2024-04-22T09:22:31.999Z,10.23
2024-04-22T09:25:00.097Z,10.11
2024-04-22T09:27:29.818Z,9.96
2024-04-22T09:30:04.151Z,10.19
2024-04-22T09:32:36.545Z,10.21
2024-04-22T09:35:16.629Z,10.08
2024-04-22T09:37:49.250Z,10.18
2024-04-22T09:40:19.191Z,10.20
2024-04-22T09:42:48.303Z,10.35
2024-04-22T09:45:16.931Z,10.34
2024-04-22T09:47:49.418Z,10.39
2024-04-22T09:50:18.457Z,10.33
2024-04-22T09:52:49.321Z,10.49
2024-04-22T09:55:17.702Z,10.47
2024-04-22T09:57:48.958Z,10.56
2024-04-22T10:00:18.154Z,10.50
2024-04-22T10:02:49.243Z,10.69
2024-04-22T10:05:17.925Z,10.72
2024-04-22T10:07:46.079Z,10.61
2024-04-22T10:10:14.137Z,10.66
2024-04-22T10:12:42.322Z,10.85
2024-04-22T10:15:13.349Z,10.78
2024-04-22T10:17:45.185Z,10.76
2024-04-22T10:20:16.089Z,10.84
2024-04-22T10:22:45.416Z,10.92
2024-04-22T10:25:20.028Z,10.90
2024-04-22T10:27:48.129Z,10.75
2024-04-22T10:30:16.164Z,10.65
2024-04-22T10:32:44.130Z,10.80
2024-04-22T10:35:12.655Z,10.84
2024-04-22T10:37:43.333Z,10.95
2024-04-22T10:40:11.649Z,10.94
2024-04-22T10:42:40.200Z,10.77
2024-04-22T10:45:08.272Z,10.71
2024-04-22T10:47:36.410Z,10.80
2024-04-22T10:50:05.143Z,10.77
2024-04-22T10:52:33.664Z,10.79
2024-04-22T10:55:04.425Z,10.74
2024-04-22T10:57:32.826Z,10.90
2024-04-22T11:00:00.775Z,11.03
2024-04-22T11:02:28.845Z,11.20
2024-04-22T11:04:56.909Z,11.30
2024-04-22T11:07:25.169Z,11.35
2024-04-22T11:09:53.344Z,11.14
2024-04-22T11:12:27.391Z,11.09
2024-04-22T11:14:58.463Z,11.05
2024-04-22T11:17:26.572Z,11.09
2024-04-22T11:19:54.601Z,10.87
2024-04-22T11:22:24.152Z,10.98
2024-04-22T11:24:52.451Z,10.87
2024-04-22T11:27:20.389Z,10.81
2024-04-22T11:29:51.190Z,10.82
2024-04-22T11:32:19.650Z,10.89
2024-04-22T11:34:48.130Z,10.96
2024-04-22T11:37:16.176Z,11.02
2024-04-22T11:39:44.143Z,11.05
2024-04-22T11:42:12.073Z,11.12
2024-04-22T11:44:40.005Z,11.13
2024-04-22T11:47:10.654Z,11.09
2024-04-22T11:49:38.728Z,11.11
2024-04-22T11:52:07.081Z,11.01
2024-04-22T11:54:35.141Z,10.84
2024-04-22T11:57:03.006Z,10.84
2024-04-22T11:59:31.139Z,10.89
2024-04-22T12:01:59.076Z,10.66
2024-04-22T12:04:29.953Z,10.78
2024-04-22T12:06:58.002Z,10.76
2024-04-22T12:09:25.822Z,10.81
2024-04-22T12:11:53.791Z,10.80
2024-04-22T12:14:21.792Z,10.82
2024-04-22T12:16:49.811Z,10.77
2024-04-22T12:19:17.836Z,10.80
2024-04-22T12:21:48.509Z,10.81
2024-04-22T12:24:16.418Z,10.92
2024-04-22T12:26:44.457Z,10.89
2024-04-22T12:29:12.375Z,10.97
2024-04-22T12:31:40.373Z,10.90
2024-04-22T12:34:12.857Z,10.83
2024-04-22T12:36:42.041Z,10.78
2024-04-22T12:39:12.819Z,10.80
2024-04-22T12:44:26.770Z,10.62
2024-04-22T12:46:55.083Z,10.52
2024-04-22T12:49:23.319Z,10.44
2024-04-22T12:51:51.514Z,10.34
2024-04-22T12:54:22.311Z,10.30
2024-04-22T12:56:50.411Z,10.27
2024-04-22T12:59:19.328Z,10.26
2024-04-22T13:01:47.727Z,10.20
2024-04-22T13:04:16.008Z,10.17
2024-04-22T13:06:44.402Z,10.20
2024-04-22T13:09:14.366Z,10.15
2024-04-22T13:11:45.935Z,10.12
2024-04-22T13:14:14.099Z,10.09
2024-04-22T13:16:42.765Z,10.15
2024-04-22T13:19:10.817Z,10.14
2024-04-22T13:21:39.089Z,10.16
2024-04-22T13:24:07.623Z,10.14
2024-04-22T13:26:35.689Z,10.04
2024-04-22T13:29:07.539Z,10.17
2024-04-22T13:31:43.673Z,10.01
2024-04-22T13:34:18.031Z,10.15
2024-04-22T13:36:47.781Z,10.23
2024-04-22T13:39:16.959Z,10.14
2024-04-22T13:41:45.141Z,10.11
2024-04-22T13:44:16.143Z,10.11
2024-04-22T13:46:44.366Z,10.17
2024-04-22T13:49:12.523Z,10.25
2024-04-22T13:51:40.720Z,10.25
2024-04-22T13:54:08.922Z,10.35
2024-04-22T13:56:37.293Z,10.29
2024-04-22T13:59:05.422Z,10.23
2024-04-22T14:01:39.772Z,10.17
2024-04-22T14:04:08.115Z,10.08
2024-04-22T14:06:36.263Z,10.11
2024-04-22T14:09:04.543Z,10.07
2024-04-22T14:11:33.097Z,10.11
2024-04-22T14:14:01.258Z,10.17
2024-04-22T14:16:36.975Z,10.06
2024-04-22T14:19:07.943Z,10.12
2024-04-22T14:21:36.030Z,10.07
2024-04-22T14:24:05.471Z,10.01
2024-04-22T14:26:33.812Z,10.10
2024-04-22T14:29:02.096Z,10.14
2024-04-22T14:31:30.238Z,10.13
2024-04-22T14:33:58.283Z,10.11
2024-04-22T14:36:29.056Z,10.14
2024-04-22T14:38:57.165Z,10.20
2024-04-22T14:41:25.455Z,10.15
2024-04-22T14:43:53.819Z,10.17
2024-04-22T14:46:22.095Z,10.16
2024-04-22T14:48:50.147Z,10.20
2024-04-22T14:51:18.200Z,10.23
2024-04-22T14:53:50.626Z,10.28
2024-04-22T14:56:18.587Z,10.27
2024-04-22T14:58:46.736Z,10.30
2024-04-22T15:01:16.146Z,10.22
2024-04-22T15:03:44.586Z,10.18
2024-04-22T15:06:12.644Z,10.22
2024-04-22T15:08:41.061Z,10.22
2024-04-22T15:11:12.944Z,10.15
2024-04-22T15:13:41.121Z,10.14
2024-04-22T15:16:09.398Z,10.16
2024-04-22T15:18:37.891Z,10.12
2024-04-22T15:21:06.312Z,10.16
2024-04-22T15:23:34.382Z,10.13
2024-04-22T15:26:02.557Z,10.11
2024-04-22T15:28:33.389Z,10.11
2024-04-22T15:31:04.682Z,10.15
2024-04-22T15:33:34.288Z,10.14
2024-04-22T15:36:11.836Z,10.12
2024-04-22T15:38:40.300Z,10.14
2024-04-22T15:41:12.106Z,10.17
2024-04-22T15:43:42.676Z,10.16
2024-04-22T15:46:11.242Z,10.15
2024-04-22T15:48:39.275Z,10.16
2024-04-22T15:51:07.262Z,10.10
2024-04-22T15:53:35.505Z,10.15
2024-04-22T15:56:04.412Z,10.11
2024-04-22T15:58:32.768Z,10.06
2024-04-22T16:01:03.547Z,10.11
2024-04-22T16:03:31.796Z,10.07
2024-04-22T16:06:00.110Z,10.08
2024-04-22T16:08:30.403Z,10.03
2024-04-22T16:10:59.871Z,10.07
2024-04-22T16:13:28.068Z,10.10
2024-04-22T16:15:56.230Z,10.06
2024-04-22T16:18:27.013Z,10.04
2024-04-22T16:21:01.342Z,10.03
2024-04-22T16:23:33.119Z,10.08
2024-04-22T16:26:01.374Z,10.06
2024-04-22T16:28:29.758Z,10.07
2024-04-22T16:30:57.851Z,10.11
2024-04-22T16:33:28.572Z,10.06
2024-04-22T16:35:56.783Z,9.96
2024-04-22T16:38:25.202Z,10.01
2024-04-22T16:40:53.478Z,10.04
2024-04-22T16:43:22.308Z,10.03
2024-04-22T16:45:50.507Z,10.03
2024-04-22T16:48:20.939Z,10.02
2024-04-22T16:50:53.420Z,9.99
2024-04-22T16:53:21.587Z,10.02
2024-04-22T16:55:49.719Z,10.00
2024-04-22T16:58:18.168Z,10.01
2024-04-22T17:00:46.349Z,10.02
2024-04-22T17:03:14.424Z,10.02
2024-04-22T17:05:44.460Z,10.04
2024-04-22T17:08:16.225Z,10.03
2024-04-22T17:10:45.347Z,10.04
2024-04-22T17:13:13.636Z,10.08
2024-04-22T17:15:41.879Z,10.04
2024-04-22T17:18:10.355Z,10.04
2024-04-22T17:20:38.446Z,10.06
2024-04-22T17:23:19.517Z,10.08
2024-04-22T17:25:47.625Z,10.06
2024-04-22T17:28:15.848Z,10.00
2024-04-22T17:30:43.943Z,10.10
2024-04-22T17:33:12.317Z,10.06
2024-04-22T17:35:40.339Z,10.03
2024-04-22T17:38:08.452Z,10.06
2024-04-22T17:40:39.314Z,10.01
2024-04-22T17:43:07.771Z,10.00
2024-04-22T17:45:35.788Z,10.03
2024-04-22T17:48:04.081Z,10.00
2024-04-22T17:50:37.506Z,10.06
2024-04-22T17:53:06.182Z,10.06
2024-04-22T17:55:34.361Z,10.05
2024-04-22T17:58:05.385Z,10.05
2024-04-22T18:00:33.552Z,10.07
2024-04-22T18:03:01.682Z,10.05
2024-04-22T18:05:29.934Z,10.04
2024-04-22T18:07:58.163Z,10.04
2024-04-22T18:10:26.551Z,10.09
2024-04-22T18:12:54.548Z,10.06
2024-04-22T18:15:25.418Z,10.06
2024-04-22T18:17:54.019Z,10.07
2024-04-22T18:20:23.194Z,10.07
2024-04-22T18:22:51.509Z,10.06
2024-04-22T18:25:20.961Z,10.03
2024-04-22T18:27:49.571Z,10.01
2024-04-22T18:30:17.931Z,9.99
2024-04-22T18:32:49.499Z,10.00
2024-04-22T18:35:17.289Z,9.98
2024-04-22T18:37:45.612Z,9.96
2024-04-22T18:40:14.135Z,9.94
2024-04-22T18:42:42.283Z,9.88
2024-04-22T18:45:10.433Z,9.82
2024-04-22T18:47:38.644Z,9.82
2024-04-22T18:50:10.043Z,9.83
2024-04-22T18:52:38.557Z,9.78
2024-04-22T18:55:08.013Z,9.81
2024-04-22T18:57:36.324Z,9.73
2024-04-22T19:00:04.939Z,9.67
2024-04-22T19:02:33.370Z,9.59
2024-04-22T19:05:02.214Z,9.49
2024-04-22T19:07:34.365Z,9.44
2024-04-22T19:10:02.793Z,9.47
2024-04-22T19:12:31.308Z,9.40
2024-04-22T19:14:59.461Z,9.37
2024-04-22T19:17:28.149Z,9.29
2024-04-22T19:19:56.600Z,9.29
2024-04-22T19:22:25.018Z,9.20
2024-04-22T19:25:01.307Z,9.25
2024-04-22T19:27:29.836Z,9.21
2024-04-22T19:29:58.135Z,9.22
2024-04-22T19:32:26.564Z,9.21
2024-04-22T19:34:54.718Z,9.22
2024-04-22T19:37:22.786Z,9.26
2024-04-22T19:39:51.246Z,9.28
2024-04-22T19:42:22.162Z,9.29
2024-04-22T19:44:50.326Z,9.34
2024-04-22T19:47:18.849Z,9.44
2024-04-22T19:49:46.932Z,9.48
2024-04-22T19:52:15.299Z,9.46
2024-04-22T19:54:43.374Z,9.50
2024-04-22T19:57:11.490Z,9.49
2024-04-22T19:59:42.157Z,9.53
2024-04-22T20:02:10.218Z,9.50
2024-04-22T20:04:40.169Z,9.45
2024-04-22T20:07:08.492Z,9.40
2024-04-22T20:09:36.708Z,9.46
2024-04-22T20:12:05.463Z,9.42
2024-04-22T20:14:33.635Z,9.41
2024-04-22T20:17:04.760Z,9.38
2024-04-22T20:19:32.807Z,9.38
2024-04-22T20:22:00.794Z,9.36
2024-04-22T20:24:28.882Z,9.36
2024-04-22T20:26:56.813Z,9.36
2024-04-22T20:29:25.109Z,9.32
2024-04-22T20:31:53.498Z,9.31
2024-04-22T20:34:24.639Z,9.22
2024-04-22T20:36:52.921Z,9.21
2024-04-22T20:39:21.609Z,9.12
2024-04-22T20:41:49.642Z,9.11
2024-04-22T20:44:18.586Z,8.92
2024-04-22T20:46:48.988Z,8.93
2024-04-22T20:49:17.349Z,8.79
2024-04-22T20:51:48.014Z,8.66
2024-04-22T20:54:15.844Z,8.53
2024-04-22T20:56:43.808Z,8.55
2024-04-22T20:59:12.558Z,8.68
2024-04-22T21:01:40.573Z,8.57
2024-04-22T21:04:08.466Z,8.33
2024-04-22T21:06:36.356Z,8.28
2024-04-22T21:09:07.088Z,8.23
2024-04-22T21:11:35.034Z,8.17
2024-04-22T21:14:04.156Z,8.07
2024-04-22T21:16:32.303Z,7.99
2024-04-22T21:19:07.722Z,7.95
2024-04-22T21:21:43.495Z,7.97
2024-04-22T21:24:15.058Z,7.92
2024-04-22T21:26:44.948Z,7.75
2024-04-22T21:29:16.216Z,7.73
2024-04-22T21:31:44.022Z,7.68
2024-04-22T21:34:11.861Z,7.56
2024-04-22T21:36:39.740Z,7.51
2024-04-22T21:39:07.514Z,7.52
2024-04-22T21:41:37.962Z,7.60
2024-04-22T21:44:06.252Z,7.56
2024-04-22T21:46:46.152Z,7.57
2024-04-22T21:49:13.934Z,7.48
2024-04-22T21:51:41.719Z,7.43
2024-04-22T21:54:09.383Z,7.34
2024-04-22T21:56:36.935Z,7.34
2024-04-22T21:59:41.876Z,7.36
2024-04-22T22:02:46.768Z,6.97
2024-04-22T22:05:51.631Z,6.82
2024-04-22T22:08:19.193Z,6.78
2024-04-22T22:11:12.347Z,6.75
2024-04-22T22:14:00.000Z,6.70
2024-04-22T22:16:27.695Z,6.74
2024-04-22T22:18:55.489Z,6.72
2024-04-22T22:21:24.918Z,6.76
2024-04-22T22:23:56.735Z,6.71
2024-04-22T22:26:29.110Z,6.78
2024-04-22T22:28:56.963Z,6.76
2024-04-22T22:31:29.885Z,6.55
2024-04-22T22:33:57.801Z,6.44
2024-04-22T22:36:25.754Z,6.55
2024-04-22T22:38:53.691Z,6.48
2024-04-22T22:41:21.637Z,6.54
2024-04-22T22:43:52.527Z,6.52
2024-04-22T22:46:20.739Z,6.50
2024-04-22T22:48:48.617Z,6.56
2024-04-22T22:51:16.255Z,6.60
2024-04-22T22:53:44.053Z,6.71
2024-04-22T22:56:11.954Z,6.75
2024-04-22T22:58:49.103Z,6.72
2024-04-22T23:01:19.685Z,6.54
2024-04-22T23:03:47.627Z,6.43
2024-04-22T23:06:15.556Z,6.44
2024-04-22T23:08:43.650Z,6.40
2024-04-22T23:11:11.581Z,6.20
2024-04-22T23:13:39.340Z,6.36
2024-04-22T23:16:09.340Z,6.32
2024-04-22T23:18:40.107Z,6.36
2024-04-22T23:21:08.754Z,6.43
2024-04-22T23:23:36.821Z,6.48
2024-04-22T23:26:08.214Z,6.53
2024-04-22T23:28:36.256Z,6.58
2024-04-22T23:31:04.160Z,6.51
2024-04-22T23:33:36.052Z,6.49
2024-04-22T23:36:07.382Z,6.38
2024-04-22T23:38:35.110Z,6.32
2024-04-22T23:41:02.957Z,6.00
2024-04-22T23:43:30.919Z,6.06
2024-04-22T23:45:58.625Z,5.98
2024-04-22T23:48:31.198Z,5.92
2024-04-22T23:50:59.009Z,5.97
2024-04-22T23:53:29.447Z,5.89
2024-04-22T23:55:57.844Z,5.81
2024-04-22T23:58:25.553Z,5.71
